Time;durP1;ratioP1;P1;durP2;ratioP2;P2;SDS_P1;SDS_P2;PMS_P1;PMS_P2;Temp;Humidity;BMP_temperature;BMP_pressure;BME280_temperature;BME280_humidity;BME280_pressure;Samples;Min_cycle;Max_cycle;Signal;HPM_P1;HPM_P2
2022/06/02 00:00:14;;;;;;;3.20;2.10;;;16.50;57.40;;;;;;5052494;28;20526;-73
2022/06/02 00:03:00;;;;;;;5.60;2.27;;;16.40;57.40;;;;;;5047034;28;20207;-72
2022/06/02 00:05:33;;;;;;;2.97;2.17;;;16.40;57.70;;;;;;5044302;28;20478;-72
2022/06/02 00:08:24;;;;;;;2.47;2.17;;;16.40;57.40;;;;;;5048914;28;20445;-74
2022/06/02 00:10:58;;;;;;;3.00;2.00;;;16.30;57.60;;;;;;5045680;28;20432;-72
2022/06/02 00:13:34;;;;;;;2.70;2.00;;;16.20;58.00;;;;;;5052454;28;20411;-72
2022/06/02 00:16:15;;;;;;;3.97;2.10;;;16.20;57.80;;;;;;5042413;28;20471;-72
2022/06/02 00:18:51;;;;;;;2.60;1.70;;;16.20;57.80;;;;;;5045767;28;20425;-72
2022/06/02 00:21:42;;;;;;;2.47;1.80;;;16.10;57.80;;;;;;5052011;28;20425;-73
2022/06/02 00:24:11;;;;;;;3.40;2.00;;;16.10;58.10;;;;;;5045615;28;20603;-74
2022/06/02 00:27:09;;;;;;;2.30;1.67;;;16.10;58.20;;;;;;5040056;28;20476;-73
2022/06/02 00:30:13;;;;;;;2.00;1.80;;;16.20;58.10;;;;;;5049864;28;20431;-72
2022/06/02 00:33:05;;;;;;;3.40;1.90;;;16.20;58.10;;;;;;5047973;28;20810;-74
2022/06/02 00:35:59;;;;;;;6.40;2.07;;;16.20;58.20;;;;;;5045107;28;20966;-73
2022/06/02 00:38:27;;;;;;;3.70;2.00;;;16.20;58.10;;;;;;5042396;28;20966;-73
2022/06/02 00:40:53;;;;;;;7.83;2.20;;;16.10;58.70;;;;;;5051223;28;20419;-73
2022/06/02 00:43:51;;;;;;;2.87;2.10;;;16.00;58.90;;;;;;5050727;28;20431;-73
2022/06/02 00:46:24;;;;;;;3.83;2.03;;;16.00;59.20;;;;;;5035891;28;20984;-73
2022/06/02 00:48:56;;;;;;;6.00;2.53;;;15.90;59.30;;;;;;5051045;28;20784;-72
2022/06/02 00:51:33;;;;;;;5.40;2.00;;;15.90;59.30;;;;;;5046343;28;20445;-72
2022/06/02 00:57:37;;;;;;;2.50;2.10;;;15.90;59.50;;;;;;5044993;28;20565;-73
2022/06/02 01:00:12;;;;;;;3.73;2.13;;;15.90;59.30;;;;;;5051653;28;20438;-72
2022/06/02 01:03:09;;;;;;;2.87;2.13;;;15.80;59.70;;;;;;5048544;28;21017;-73
2022/06/02 01:05:44;;;;;;;3.00;2.00;;;15.80;59.60;;;;;;5044261;28;20894;-72
2022/06/02 01:08:32;;;;;;;2.73;2.07;;;15.80;59.70;;;;;;5050991;28;20418;-71
2022/06/02 01:10:58;;;;;;;3.53;2.07;;;15.70;59.60;;;;;;5043855;28;20993;-72
2022/06/02 01:13:50;;;;;;;2.73;2.10;;;15.70;59.90;;;;;;5051699;28;20451;-73
2022/06/02 01:16:51;;;;;;;3.07;2.27;;;15.80;59.70;;;;;;5041412;28;20217;-72
2022/06/02 01:19:48;;;;;;;3.07;1.87;;;15.70;60.00;;;;;;5046115;28;20442;-74
2022/06/02 01:22:55;;;;;;;2.17;1.90;;;15.70;60.10;;;;;;5041329;28;20433;-73
2022/06/02 01:25:23;;;;;;;3.57;2.00;;;15.80;60.00;;;;;;5047420;28;20574;-73
2022/06/02 01:27:58;;;;;;;6.50;2.20;;;15.90;60.00;;;;;;5053490;28;20962;-74
2022/06/02 01:30:51;;;;;;;5.83;3.10;;;15.90;59.90;;;;;;5049410;28;20945;-72
2022/06/02 01:33:23;;;;;;;3.80;2.77;;;15.80;60.00;;;;;;5043053;28;20534;-73
2022/06/02 01:35:49;;;;;;;3.53;1.90;;;15.70;60.60;;;;;;5046949;28;21240;-73
2022/06/02 01:38:35;;;;;;;3.70;2.07;;;15.80;60.40;;;;;;5054974;28;20472;-73
2022/06/02 01:41:32;;;;;;;3.77;1.97;;;15.70;60.60;;;;;;5049489;28;20191;-73
2022/06/02 01:44:17;;;;;;;3.60;2.00;;;15.60;60.90;;;;;;5057474;28;20516;-73
2022/06/02 01:47:02;;;;;;;6.63;2.30;;;15.50;61.50;;;;;;5056073;28;20529;-73
2022/06/02 01:49:47;;;;;;;2.23;1.90;;;15.40;61.70;;;;;;5056939;28;20424;-73
2022/06/02 01:52:28;;;;;;;6.50;2.17;;;15.30;62.20;;;;;;5054091;28;20434;-72
2022/06/02 01:55:21;;;;;;;3.80;2.63;;;15.20;62.30;;;;;;5051870;28;20462;-73
2022/06/02 01:58:05;;;;;;;2.90;2.03;;;15.20;62.50;;;;;;5052733;28;20457;-71
2022/06/02 02:00:34;;;;;;;6.10;2.47;;;15.20;62.50;;;;;;5042129;28;21032;-74
2022/06/02 02:03:29;;;;;;;2.47;2.07;;;15.20;62.50;;;;;;5047546;28;20428;-71
2022/06/02 02:06:10;;;;;;;4.70;1.97;;;15.20;62.60;;;;;;5043670;28;20469;-72
2022/06/02 02:09:02;;;;;;;3.53;2.43;;;15.20;62.50;;;;;;5048315;28;20422;-72
2022/06/02 02:11:48;;;;;;;2.70;2.17;;;15.20;62.60;;;;;;5043069;28;20413;-72
2022/06/02 02:14:42;;;;;;;3.30;2.00;;;15.20;62.80;;;;;;5051433;28;20792;-71
2022/06/02 02:17:32;;;;;;;3.47;2.60;;;15.20;62.80;;;;;;5053131;28;20456;-72
2022/06/02 02:20:01;;;;;;;2.47;2.30;;;15.20;62.80;;;;;;5056404;28;20419;-72
2022/06/02 02:22:30;;;;;;;7.63;2.10;;;15.10;62.90;;;;;;5049194;28;20501;-71
2022/06/02 02:25:02;;;;;;;3.33;2.10;;;15.10;63.10;;;;;;5046746;28;20479;-74
2022/06/02 02:28:02;;;;;;;6.20;2.23;;;15.10;63.40;;;;;;5053351;28;20558;-72
2022/06/02 02:31:10;;;;;;;3.70;2.27;;;15.20;63.10;;;;;;5066211;28;20510;-75
2022/06/02 02:34:12;;;;;;;4.07;2.20;;;15.20;63.10;;;;;;5049694;28;20421;-72
2022/06/02 02:36:56;;;;;;;2.90;2.10;;;15.20;63.10;;;;;;5052784;28;20494;-72
2022/06/02 02:39:38;;;;;;;3.10;2.20;;;15.20;62.90;;;;;;5044525;28;20450;-71
2022/06/02 02:42:15;;;;;;;1.90;1.73;;;15.10;63.20;;;;;;5054144;28;20419;-71
2022/06/02 02:45:08;;;;;;;3.93;2.37;;;15.10;63.40;;;;;;5052726;28;20497;-72
2022/06/02 02:47:57;;;;;;;3.63;2.20;;;15.10;63.40;;;;;;5085140;28;20451;-73
2022/06/02 02:50:29;;;;;;;2.90;2.20;;;15.10;63.40;;;;;;5080888;28;20482;-71
2022/06/02 02:53:18;;;;;;;2.43;1.90;;;15.10;63.50;;;;;;5079691;28;20546;-71
2022/06/02 02:56:11;;;;;;;9.20;2.50;;;15.10;63.50;;;;;;5090438;28;20543;-75
2022/06/02 02:58:54;;;;;;;3.10;2.27;;;15.10;63.40;;;;;;5071664;28;20540;-72
2022/06/02 03:01:53;;;;;;;2.83;2.17;;;15.10;63.40;;;;;;5089798;28;20812;-73
2022/06/02 03:04:19;;;;;;;3.53;2.07;;;15.00;63.40;;;;;;5086490;28;20482;-72
2022/06/02 03:06:47;;;;;;;3.50;2.30;;;15.00;63.40;;;;;;5082027;28;20461;-73
2022/06/02 03:09:24;;;;;;;3.70;2.20;;;15.00;63.50;;;;;;5079050;28;20210;-72
2022/06/02 03:11:52;;;;;;;4.53;2.60;;;14.90;63.40;;;;;;5087793;28;20433;-72
2022/06/02 03:14:54;;;;;;;6.10;3.67;;;14.80;63.70;;;;;;5090354;28;20425;-71
2022/06/02 03:17:41;;;;;;;3.03;2.10;;;14.70;63.90;;;;;;5083585;28;20824;-73
2022/06/02 03:20:28;;;;;;;3.17;2.10;;;14.70;63.90;;;;;;5077007;28;20424;-75
2022/06/02 03:23:11;;;;;;;4.27;2.80;;;14.80;64.10;;;;;;5083232;28;20433;-73
2022/06/02 03:25:52;;;;;;;3.13;2.50;;;14.80;63.50;;;;;;5055101;28;20989;-74
2022/06/02 03:28:47;;;;;;;4.27;2.50;;;14.80;63.70;;;;;;5052536;28;21106;-73
2022/06/02 03:31:43;;;;;;;2.70;2.60;;;14.80;63.40;;;;;;5044873;28;20428;-73
2022/06/02 03:34:17;;;;;;;3.40;2.30;;;14.80;63.40;;;;;;5052961;28;20422;-72
2022/06/02 03:37:40;;;;;;;4.03;2.67;;;14.80;63.50;;;;;;5043849;28;20989;-74
2022/06/02 03:40:22;;;;;;;3.17;2.80;;;14.80;63.50;;;;;;5042812;28;20466;-73
2022/06/02 03:43:14;;;;;;;3.00;2.10;;;14.70;63.80;;;;;;5049468;28;20434;-73
2022/06/02 03:46:15;;;;;;;3.80;2.47;;;14.80;63.70;;;;;;5035595;28;20903;-72
2022/06/02 03:49:00;;;;;;;4.43;2.60;;;14.80;63.50;;;;;;5041879;28;20424;-72
2022/06/02 03:51:42;;;;;;;5.20;2.70;;;14.90;63.40;;;;;;5046239;28;20427;-73
2022/06/02 03:54:47;;;;;;;3.60;2.83;;;14.90;63.20;;;;;;5049861;28;20424;-75
2022/06/02 03:57:15;;;;;;;3.70;2.40;;;14.80;63.50;;;;;;4952218;28;20460;-72
2022/06/02 04:00:08;;;;;;;5.33;3.03;;;14.80;63.40;;;;;;4968651;28;20428;-74
2022/06/02 04:02:40;;;;;;;3.90;2.90;;;14.70;63.50;;;;;;4963453;28;20434;-73
2022/06/02 04:05:17;;;;;;;5.77;3.37;;;14.70;63.80;;;;;;4959615;29;21319;-72
2022/06/02 04:08:03;;;;;;;4.27;2.90;;;14.70;64.10;;;;;;4963528;28;20447;-71
2022/06/02 04:10:36;;;;;;;5.63;2.97;;;14.70;63.50;;;;;;4968209;28;20481;-76
2022/06/02 04:13:39;;;;;;;5.07;2.60;;;14.80;63.80;;;;;;4973845;28;20419;-74
2022/06/02 04:16:13;;;;;;;5.03;2.83;;;14.80;63.90;;;;;;4961462;28;20494;-74
2022/06/02 04:18:44;;;;;;;3.23;2.80;;;14.80;63.80;;;;;;4954177;28;20435;-73
2022/06/02 04:21:39;;;;;;;5.30;3.27;;;14.70;63.80;;;;;;4970281;28;20998;-74
2022/06/02 04:24:17;;;;;;;4.50;3.00;;;14.80;63.70;;;;;;4964811;28;20467;-74
2022/06/02 04:27:01;;;;;;;4.77;3.00;;;14.70;63.90;;;;;;4964747;28;20553;-74
2022/06/02 04:29:52;;;;;;;4.90;3.17;;;14.70;63.90;;;;;;4970445;28;20429;-73
2022/06/02 04:32:29;;;;;;;9.73;3.40;;;14.80;63.80;;;;;;4949867;28;20493;-75
2022/06/02 04:35:06;;;;;;;5.23;2.90;;;14.80;63.80;;;;;;5035942;28;20427;-75
2022/06/02 04:37:38;;;;;;;4.60;2.90;;;14.80;63.80;;;;;;5043749;28;20464;-74
2022/06/02 04:40:27;;;;;;;4.30;2.83;;;14.90;63.40;;;;;;5043284;28;20431;-73
2022/06/02 04:43:21;;;;;;;3.10;2.50;;;14.90;62.90;;;;;;5045960;28;20496;-74
2022/06/02 04:46:17;;;;;;;3.93;2.73;;;14.70;63.20;;;;;;5038762;28;20837;-73
2022/06/02 04:48:53;;;;;;;3.60;2.63;;;14.80;63.70;;;;;;5041491;28;20418;-74
2022/06/02 04:51:32;;;;;;;2.90;2.53;;;14.70;63.50;;;;;;5038494;28;20448;-72
2022/06/02 04:54:27;;;;;;;4.83;3.00;;;14.70;63.90;;;;;;5044042;28;20843;-73
2022/06/02 04:57:21;;;;;;;4.67;2.67;;;14.80;63.90;;;;;;5045307;28;20500;-73
2022/06/02 04:59:56;;;;;;;3.30;2.57;;;14.90;64.20;;;;;;5047803;28;20463;-73
2022/06/02 05:02:47;;;;;;;5.70;2.50;;;14.90;63.90;;;;;;5047600;28;20456;-72
2022/06/02 05:05:22;;;;;;;9.07;2.90;;;15.10;63.90;;;;;;5044457;28;20468;-74
2022/06/02 05:08:12;;;;;;;2.90;2.47;;;15.10;63.50;;;;;;5050199;28;20423;-72
2022/06/02 05:11:23;;;;;;;3.83;2.83;;;15.20;63.90;;;;;;5045807;28;20423;-74
2022/06/02 05:14:29;;;;;;;3.53;3.00;;;15.30;64.10;;;;;;5044594;28;20427;-72
2022/06/02 05:17:06;;;;;;;6.97;2.83;;;15.50;63.10;;;;;;5055768;28;21015;-74
2022/06/02 05:20:14;;;;;;;4.60;2.60;;;15.50;62.80;;;;;;5037081;28;20527;-74
2022/06/02 05:22:57;;;;;;;2.70;2.50;;;15.60;62.30;;;;;;5053907;28;20436;-73
2022/06/02 05:25:55;;;;;;;7.20;3.00;;;15.50;61.90;;;;;;5040434;28;20489;-75
2022/06/02 05:28:49;;;;;;;4.10;2.67;;;15.50;61.60;;;;;;5038693;28;20914;-75
2022/06/02 05:31:48;;;;;;;5.30;3.40;;;15.50;61.20;;;;;;5043290;28;20430;-74
2022/06/02 05:34:38;;;;;;;6.10;3.20;;;15.60;59.70;;;;;;5045009;28;20431;-75
2022/06/02 05:37:25;;;;;;;5.30;3.00;;;15.70;60.90;;;;;;5040707;28;20462;-73
2022/06/02 05:40:00;;;;;;;5.80;3.37;;;15.70;60.10;;;;;;5062718;28;20486;-74
2022/06/02 05:42:50;;;;;;;4.63;2.80;;;15.60;59.30;;;;;;5066699;28;20519;-74
2022/06/02 05:45:41;;;;;;;5.37;3.43;;;15.60;59.70;;;;;;5040014;28;20485;-75
2022/06/02 05:48:26;;;;;;;4.60;2.83;;;15.60;59.90;;;;;;5037943;28;20421;-76
2022/06/02 05:51:04;;;;;;;3.73;2.90;;;15.60;59.60;;;;;;5038456;28;20431;-73
2022/06/02 05:53:52;;;;;;;8.00;3.43;;;15.70;59.70;;;;;;5042088;28;20423;-75
2022/06/02 05:56:30;;;;;;;3.73;2.73;;;15.70;59.30;;;;;;5041184;28;20447;-74
2022/06/02 05:59:14;;;;;;;4.33;3.07;;;15.70;59.10;;;;;;5034676;28;20553;-76
2022/06/02 06:01:52;;;;;;;5.20;3.33;;;15.70;58.80;;;;;;5034946;28;20414;-72
2022/06/02 06:04:30;;;;;;;5.17;3.13;;;15.60;58.80;;;;;;5036676;28;20479;-74
2022/06/02 06:07:01;;;;;;;4.43;3.37;;;15.70;58.80;;;;;;5042793;28;20450;-73
2022/06/02 06:09:33;;;;;;;5.10;3.17;;;15.70;58.80;;;;;;5040660;28;20507;-77
2022/06/02 06:12:02;;;;;;;6.90;3.60;;;15.80;58.90;;;;;;5043240;28;20424;-75
2022/06/02 06:14:40;;;;;;;8.70;3.57;;;15.90;59.10;;;;;;5043802;28;20430;-75
2022/06/02 06:17:11;;;;;;;6.77;3.43;;;15.90;58.80;;;;;;5047586;28;20459;-73
2022/06/02 06:20:16;;;;;;;11.50;4.47;;;15.90;59.10;;;;;;5045849;28;20462;-73
2022/06/02 06:22:54;;;;;;;4.50;3.30;;;15.80;59.50;;;;;;5082531;28;20514;-76
2022/06/02 06:25:29;;;;;;;6.23;3.40;;;15.90;59.70;;;;;;5051202;28;21047;-73
2022/06/02 06:28:22;;;;;;;3.83;3.30;;;15.80;60.30;;;;;;5047367;28;20438;-74
2022/06/02 06:31:27;;;;;;;3.40;3.20;;;15.70;60.60;;;;;;5047425;28;20424;-74
2022/06/02 06:34:39;;;;;;;6.33;2.80;;;15.70;61.00;;;;;;5045354;28;20403;-74
2022/06/02 06:37:14;;;;;;;9.67;3.93;;;15.80;61.00;;;;;;5046973;28;20470;-74
2022/06/02 06:40:08;;;;;;;9.90;3.57;;;15.90;60.70;;;;;;5049786;28;20464;-74
2022/06/02 06:42:46;;;;;;;4.03;3.37;;;15.90;60.10;;;;;;5051752;28;20422;-74
2022/06/02 06:45:17;;;;;;;4.00;3.00;;;16.00;59.60;;;;;;5041825;28;21461;-74
2022/06/02 06:47:49;;;;;;;7.93;3.63;;;16.00;60.00;;;;;;5042256;28;21043;-73
2022/06/02 06:50:39;;;;;;;4.13;3.23;;;16.10;60.00;;;;;;5044004;28;20809;-76
2022/06/02 06:53:17;;;;;;;4.30;3.30;;;16.10;59.90;;;;;;5049801;28;20430;-74
2022/06/02 06:55:53;;;;;;;7.33;3.20;;;16.00;59.60;;;;;;5042009;28;20458;-74
2022/06/02 06:58:40;;;;;;;12.80;4.20;;;16.00;59.20;;;;;;5045778;28;20453;-74
2022/06/02 07:01:23;;;;;;;8.37;3.27;;;16.20;59.20;;;;;;5037356;28;20426;-74
2022/06/02 07:03:48;;;;;;;4.00;3.20;;;16.30;59.10;;;;;;5047637;28;20474;-74
2022/06/02 07:06:19;;;;;;;4.33;2.93;;;16.40;59.10;;;;;;5026211;28;20839;-75
2022/06/02 07:09:09;;;;;;;5.43;3.20;;;16.50;58.80;;;;;;5049399;28;20212;-75
2022/06/02 07:14:59;;;;;;;6.60;3.93;;;16.60;57.70;;;;;;5052291;28;20402;-74
2022/06/02 07:17:54;;;;;;;4.47;3.10;;;16.50;57.30;;;;;;5050324;28;20439;-77
2022/06/02 07:20:30;;;;;;;7.30;3.07;;;16.60;57.30;;;;;;5052712;28;20524;-74
2022/06/02 07:23:15;;;;;;;3.97;3.17;;;16.60;57.30;;;;;;5049851;28;20415;-74
2022/06/02 07:26:03;;;;;;;3.27;2.80;;;16.70;57.00;;;;;;5050275;28;21123;-75
2022/06/02 07:28:54;;;;;;;4.40;3.07;;;16.80;56.90;;;;;;5041791;28;20431;-76
2022/06/02 07:31:26;;;;;;;6.27;3.33;;;17.00;56.50;;;;;;5041525;28;20451;-75
2022/06/02 07:34:10;;;;;;;6.73;4.00;;;17.00;56.50;;;;;;5037499;28;20412;-74
2022/06/02 07:37:05;;;;;;;5.10;2.53;;;17.00;56.60;;;;;;5040087;28;20467;-74
2022/06/02 07:39:31;;;;;;;6.93;3.60;;;17.10;56.60;;;;;;5055596;28;20788;-74
2022/06/02 07:42:08;;;;;;;5.30;3.83;;;17.20;56.00;;;;;;5048675;28;20516;-74
2022/06/02 07:45:03;;;;;;;5.83;2.90;;;17.30;54.80;;;;;;5043920;28;20314;-74
2022/06/02 07:47:54;;;;;;;7.27;2.77;;;17.10;54.60;;;;;;5043045;28;20415;-75
2022/06/02 07:50:24;;;;;;;5.87;2.57;;;17.10;55.60;;;;;;5046528;28;20962;-74
2022/06/02 07:53:05;;;;;;;5.10;2.57;;;17.20;55.30;;;;;;5038964;28;21057;-74
2022/06/02 07:55:50;;;;;;;3.63;2.83;;;17.20;55.30;;;;;;5043038;28;20500;-75
2022/06/02 07:58:27;;;;;;;4.93;2.97;;;17.10;54.90;;;;;;5040162;28;20477;-74
2022/06/02 08:01:17;;;;;;;6.77;3.07;;;17.10;53.80;;;;;;5042883;28;20481;-75
2022/06/02 08:03:58;;;;;;;4.77;3.17;;;17.10;54.50;;;;;;5050091;28;20466;-75
2022/06/02 08:06:45;;;;;;;3.83;2.80;;;17.30;55.30;;;;;;5048550;28;20517;-75
2022/06/02 08:09:23;;;;;;;8.03;3.50;;;17.50;55.00;;;;;;5049518;28;20411;-75
2022/06/02 08:11:56;;;;;;;3.50;2.87;;;17.50;54.40;;;;;;5047696;28;20499;-75
2022/06/02 08:14:33;;;;;;;4.10;3.10;;;17.40;54.40;;;;;;5051709;28;20411;-74
2022/06/02 08:17:08;;;;;;;4.17;2.97;;;17.40;54.40;;;;;;5046626;28;20520;-75
2022/06/02 08:20:00;;;;;;;4.30;2.60;;;17.50;54.10;;;;;;5045376;28;20501;-75
2022/06/02 08:22:35;;;;;;;3.90;2.90;;;17.60;53.60;;;;;;5044993;28;20432;-75
2022/06/02 08:25:12;;;;;;;11.13;3.17;;;17.70;53.60;;;;;;5033988;28;20490;-75
2022/06/02 08:27:51;;;;;;;5.20;2.70;;;17.80;53.60;;;;;;5043726;28;20422;-75
2022/06/02 08:30:30;;;;;;;4.07;3.07;;;17.90;53.40;;;;;;5033869;28;20407;-74
2022/06/02 08:33:31;;;;;;;3.63;3.13;;;17.80;53.30;;;;;;5050854;28;20904;-74
2022/06/02 08:36:06;;;;;;;3.83;3.00;;;17.90;53.60;;;;;;5040645;28;20468;-74
2022/06/02 08:38:59;;;;;;;3.93;2.63;;;18.00;53.40;;;;;;5038135;28;20408;-74
2022/06/02 08:41:43;;;;;;;4.00;3.03;;;18.10;53.00;;;;;;5045145;28;20424;-75
2022/06/02 08:44:45;;;;;;;3.93;2.93;;;18.10;53.00;;;;;;5039785;28;20467;-75
2022/06/02 08:47:48;;;;;;;5.80;2.87;;;18.20;52.90;;;;;;5043122;28;21041;-75
2022/06/02 08:50:20;;;;;;;3.97;2.77;;;18.30;52.20;;;;;;5036332;28;20434;-75
2022/06/02 08:53:15;;;;;;;8.70;3.00;;;18.40;52.20;;;;;;5039573;28;20462;-75
2022/06/02 08:56:19;;;;;;;4.73;2.97;;;18.30;52.60;;;;;;5043764;28;20455;-75
2022/06/02 08:59:00;;;;;;;4.70;3.30;;;18.30;53.30;;;;;;5036232;28;20488;-74
2022/06/02 09:01:31;;;;;;;3.73;2.70;;;18.40;52.50;;;;;;5047088;28;20423;-76
2022/06/02 09:04:09;;;;;;;4.27;3.20;;;18.40;52.50;;;;;;5058627;28;20464;-74
2022/06/02 09:07:08;;;;;;;3.93;2.90;;;18.50;51.60;;;;;;5042477;28;20453;-75
2022/06/02 09:09:53;;;;;;;3.37;2.80;;;18.50;52.00;;;;;;5040597;28;20918;-74
2022/06/02 09:12:51;;;;;;;5.60;2.70;;;18.70;51.80;;;;;;5033832;28;20417;-75
2022/06/02 09:15:41;;;;;;;4.70;2.60;;;18.70;51.70;;;;;;5039140;28;20468;-75
2022/06/02 09:18:10;;;;;;;3.43;2.90;;;18.80;51.80;;;;;;5043072;28;20421;-74
2022/06/02 09:20:50;;;;;;;3.10;2.40;;;18.80;51.40;;;;;;5040538;28;20422;-74
2022/06/02 09:23:15;;;;;;;3.87;2.40;;;18.90;51.20;;;;;;5036651;28;20422;-73
2022/06/02 09:25:41;;;;;;;3.57;2.60;;;19.10;51.00;;;;;;5040921;28;21003;-75
2022/06/02 09:28:26;;;;;;;7.33;2.80;;;19.20;50.50;;;;;;5047406;28;20224;-75
2022/06/02 09:31:10;;;;;;;9.13;3.10;;;19.10;51.20;;;;;;5041845;28;20413;-74
2022/06/02 09:33:55;;;;;;;3.43;2.60;;;19.20;51.20;;;;;;5043414;28;20435;-74
2022/06/02 09:36:51;;;;;;;4.63;3.77;;;19.40;50.90;;;;;;5039991;28;20456;-75
2022/06/02 09:39:38;;;;;;;2.90;2.50;;;19.50;50.50;;;;;;5039204;28;20888;-73
2022/06/02 09:42:12;;;;;;;4.63;2.67;;;19.50;50.70;;;;;;5041555;28;20429;-75
2022/06/02 09:44:44;;;;;;;5.07;2.80;;;19.70;50.50;;;;;;5041797;28;20842;-75
2022/06/02 09:47:17;;;;;;;4.40;3.20;;;19.80;50.30;;;;;;5046268;28;20580;-73
2022/06/02 09:49:47;;;;;;;6.40;3.20;;;20.00;49.80;;;;;;5040195;28;20450;-74
2022/06/02 09:52:32;;;;;;;5.37;2.90;;;20.00;49.80;;;;;;5048468;28;20427;-73
2022/06/02 09:55:38;;;;;;;4.80;3.07;;;19.90;49.40;;;;;;5038372;28;20422;-74
2022/06/02 09:58:35;;;;;;;5.57;2.73;;;20.00;49.70;;;;;;5039983;28;20452;-75
2022/06/02 10:01:19;;;;;;;11.97;3.77;;;20.00;49.40;;;;;;5047468;28;20424;-75
2022/06/02 10:03:54;;;;;;;6.37;3.37;;;20.20;49.30;;;;;;5039038;28;20419;-74
2022/06/02 10:06:47;;;;;;;6.97;2.87;;;20.10;49.10;;;;;;5045812;28;20464;-75
2022/06/02 10:09:47;;;;;;;9.13;2.97;;;20.30;48.70;;;;;;5046883;28;20790;-75
2022/06/02 10:13:00;;;;;;;5.20;3.20;;;20.70;48.20;;;;;;5054067;28;20430;-75
2022/06/02 10:15:41;;;;;;;6.70;2.90;;;20.80;47.50;;;;;;5049521;28;20462;-73
2022/06/02 10:18:25;;;;;;;4.80;3.37;;;21.10;47.10;;;;;;5049610;28;20424;-76
2022/06/02 10:21:10;;;;;;;5.40;2.90;;;21.40;47.30;;;;;;5059997;28;20422;-76
2022/06/02 10:23:54;;;;;;;5.53;3.00;;;21.80;45.90;;;;;;5051409;28;20459;-74
2022/06/02 10:26:28;;;;;;;4.63;3.70;;;21.20;46.90;;;;;;5055360;28;20466;-75
2022/06/02 10:29:29;;;;;;;3.60;2.60;;;21.10;47.30;;;;;;5053039;28;20477;-74
2022/06/02 10:32:19;;;;;;;4.50;3.20;;;21.50;46.70;;;;;;5039828;28;20422;-76
2022/06/02 10:35:11;;;;;;;7.37;3.20;;;21.80;46.20;;;;;;5047604;28;20427;-75
2022/06/02 10:37:58;;;;;;;3.67;3.13;;;22.40;45.40;;;;;;5050840;28;20432;-74
2022/06/02 10:40:53;;;;;;;3.90;3.13;;;22.60;43.90;;;;;;5051883;28;20422;-75
2022/06/02 10:43:32;;;;;;;3.93;3.10;;;22.70;44.10;;;;;;5047329;28;20424;-76
2022/06/02 10:46:15;;;;;;;10.23;3.80;;;22.70;44.10;;;;;;5045527;28;20477;-74
2022/06/02 10:48:47;;;;;;;3.63;2.97;;;22.30;45.30;;;;;;5051717;28;20420;-73
2022/06/02 10:51:23;;;;;;;4.43;2.73;;;22.70;43.90;;;;;;5044830;28;20417;-74
2022/06/02 10:54:10;;;;;;;5.60;2.90;;;23.20;43.10;;;;;;5051997;28;20420;-74
2022/06/02 10:56:41;;;;;;;8.57;3.47;;;22.90;42.70;;;;;;5052977;28;20836;-75
2022/06/02 10:59:22;;;;;;;4.13;3.07;;;22.60;43.80;;;;;;5061397;28;20514;-74
2022/06/02 11:02:24;;;;;;;3.47;2.97;;;22.70;44.10;;;;;;5063834;28;20417;-76
2022/06/02 11:05:20;;;;;;;4.70;3.07;;;22.80;44.50;;;;;;5059312;28;20456;-75
2022/06/02 11:08:01;;;;;;;5.73;3.40;;;23.40;43.50;;;;;;5064167;28;20836;-73
2022/06/02 11:10:56;;;;;;;3.53;3.00;;;23.20;43.20;;;;;;5054889;28;20444;-73
2022/06/02 11:13:42;;;;;;;2.90;2.63;;;23.00;43.70;;;;;;5053492;28;20431;-74
2022/06/02 11:16:29;;;;;;;4.97;3.03;;;23.00;43.50;;;;;;5051871;28;20481;-74
2022/06/02 11:19:22;;;;;;;6.33;3.40;;;22.80;43.90;;;;;;5056922;28;20467;-73
2022/06/02 11:22:15;;;;;;;4.40;2.93;;;23.10;43.70;;;;;;5055560;28;20467;-74
2022/06/02 11:25:02;;;;;;;2.97;2.80;;;23.10;43.10;;;;;;5038568;28;20843;-75
2022/06/02 11:27:59;;;;;;;3.80;2.93;;;23.30;43.00;;;;;;5054840;28;20828;-76
2022/06/02 11:30:25;;;;;;;3.30;2.80;;;23.90;42.60;;;;;;5046792;28;20430;-73
2022/06/02 11:33:14;;;;;;;3.77;2.87;;;23.90;41.80;;;;;;5040947;28;20510;-74
2022/06/02 11:36:10;;;;;;;3.63;2.70;;;24.00;41.20;;;;;;5038341;28;20227;-75
2022/06/02 11:39:24;;;;;;;5.40;3.03;;;24.40;41.20;;;;;;5043513;28;20480;-76
2022/06/02 11:41:58;;;;;;;6.40;3.70;;;24.30;41.20;;;;;;5061177;28;20430;-73
2022/06/02 11:44:30;;;;;;;3.80;2.80;;;24.20;41.00;;;;;;5060357;28;20477;-72
2022/06/02 11:47:20;;;;;;;6.37;3.00;;;23.70;41.80;;;;;;5063032;28;20552;-74
2022/06/02 11:50:03;;;;;;;4.30;2.97;;;23.90;42.00;;;;;;5058469;28;20478;-75
2022/06/02 11:53:02;;;;;;;4.90;3.17;;;24.10;41.20;;;;;;5047455;28;20430;-73
2022/06/02 11:56:12;;;;;;;5.90;3.20;;;23.50;42.40;;;;;;5064071;28;20464;-76
2022/06/02 11:58:46;;;;;;;2.90;2.53;;;24.00;42.00;;;;;;5051453;28;20481;-75
2022/06/02 12:01:21;;;;;;;4.67;3.37;;;23.60;42.70;;;;;;5057570;28;20423;-73
2022/06/02 12:04:02;;;;;;;3.10;2.70;;;23.50;43.10;;;;;;5059969;28;20425;-74
2022/06/02 12:06:33;;;;;;;3.60;2.53;;;23.30;43.80;;;;;;5061975;28;20487;-73
2022/06/02 12:09:18;;;;;;;5.37;3.30;;;23.40;43.50;;;;;;5058974;28;20845;-75
2022/06/02 12:11:46;;;;;;;6.47;3.17;;;23.30;43.50;;;;;;5062384;28;20433;-74
2022/06/02 12:14:30;;;;;;;3.03;2.70;;;23.50;43.50;;;;;;5060028;28;20929;-74
2022/06/02 12:17:11;;;;;;;7.10;3.10;;;23.70;43.10;;;;;;5058015;28;20492;-74
2022/06/02 12:19:55;;;;;;;5.03;3.13;;;23.90;43.00;;;;;;5042940;28;20457;-74
2022/06/02 12:22:54;;;;;;;7.10;3.23;;;24.30;41.60;;;;;;5048268;28;20438;-73
2022/06/02 12:25:40;;;;;;;3.23;2.80;;;23.80;42.30;;;;;;5048576;28;20545;-77
2022/06/02 12:28:36;;;;;;;5.73;3.13;;;23.70;43.20;;;;;;5067108;28;20433;-74
2022/06/02 12:31:25;;;;;;;6.00;3.23;;;23.60;43.70;;;;;;5051612;28;20416;-73
2022/06/02 12:34:29;;;;;;;4.40;3.03;;;23.60;43.50;;;;;;5041285;28;20474;-73
2022/06/02 12:37:29;;;;;;;4.13;3.27;;;23.40;43.90;;;;;;5046428;28;20448;-74
2022/06/02 12:40:28;;;;;;;6.20;3.10;;;23.60;43.40;;;;;;5046989;28;20421;-74
2022/06/02 12:43:03;;;;;;;5.07;3.30;;;24.20;42.60;;;;;;5046631;28;20450;-76
2022/06/02 12:45:47;;;;;;;4.20;2.77;;;24.40;42.00;;;;;;5040209;28;20469;-77
2022/06/02 12:48:22;;;;;;;9.83;4.40;;;23.90;43.10;;;;;;5052498;28;20430;-74
2022/06/02 12:51:09;;;;;;;7.83;3.10;;;24.20;42.80;;;;;;5044699;28;20427;-74
2022/06/02 12:54:02;;;;;;;7.90;3.60;;;23.90;43.10;;;;;;5051899;28;20471;-74
2022/06/02 12:56:52;;;;;;;6.40;3.83;;;24.10;43.10;;;;;;5039796;28;20558;-75
2022/06/02 12:59:49;;;;;;;5.30;2.90;;;24.20;42.60;;;;;;5047233;28;20458;-75
2022/06/02 13:02:49;;;;;;;3.13;3.00;;;24.30;42.60;;;;;;5045665;28;20473;-74
2022/06/02 13:05:29;;;;;;;5.20;3.27;;;24.70;41.60;;;;;;5039801;28;20477;-74
2022/06/02 13:08:33;;;;;;;3.80;2.97;;;24.40;42.60;;;;;;5041495;28;20747;-74
2022/06/02 13:11:10;;;;;;;3.90;3.07;;;24.10;43.00;;;;;;5038268;28;20425;-75
2022/06/02 13:14:03;;;;;;;4.10;2.90;;;24.20;42.60;;;;;;5044509;28;20479;-73
2022/06/02 13:16:44;;;;;;;5.43;3.30;;;24.30;42.20;;;;;;5043803;28;20494;-75
2022/06/02 13:19:41;;;;;;;5.27;2.83;;;24.50;42.00;;;;;;5041830;28;20751;-75
2022/06/02 13:22:49;;;;;;;6.10;3.00;;;24.70;41.90;;;;;;5039192;28;20429;-75
2022/06/02 13:25:56;;;;;;;6.17;2.90;;;24.70;41.60;;;;;;5045109;28;20475;-75
2022/06/02 13:28:38;;;;;;;5.07;3.10;;;24.80;41.50;;;;;;5065900;28;20419;-74
2022/06/02 13:31:10;;;;;;;6.50;3.03;;;24.70;41.90;;;;;;5050727;28;20441;-76
2022/06/02 13:33:57;;;;;;;2.97;2.80;;;24.60;41.80;;;;;;5044281;28;20431;-75
2022/06/02 13:36:40;;;;;;;4.80;2.87;;;24.40;42.40;;;;;;5039687;28;20459;-75
2022/06/02 13:39:34;;;;;;;3.80;2.70;;;24.20;42.60;;;;;;5033637;28;20457;-75
2022/06/02 13:42:25;;;;;;;4.43;2.90;;;23.70;43.50;;;;;;5038884;28;20435;-76
2022/06/02 13:45:10;;;;;;;3.90;2.90;;;23.40;44.50;;;;;;5037271;28;21016;-75
2022/06/02 13:47:57;;;;;;;4.40;3.43;;;23.60;44.50;;;;;;5046307;28;20953;-74
2022/06/02 13:50:31;;;;;;;5.90;3.43;;;23.70;44.10;;;;;;5044421;28;20943;-74
2022/06/02 13:53:32;;;;;;;4.87;2.83;;;23.80;43.90;;;;;;5043383;28;20425;-75
2022/06/02 13:59:12;;;;;;;4.37;3.30;;;24.20;42.80;;;;;;5038326;28;20883;-75
2022/06/02 14:02:05;;;;;;;4.00;3.00;;;23.60;43.90;;;;;;5049889;28;20884;-75
2022/06/02 14:04:49;;;;;;;4.93;2.97;;;23.60;44.50;;;;;;5050746;28;20876;-75
2022/06/02 14:07:49;;;;;;;8.43;4.00;;;24.00;43.50;;;;;;5041496;28;20447;-75
2022/06/02 14:10:40;;;;;;;3.87;3.00;;;24.30;43.20;;;;;;5044154;28;20466;-75
2022/06/02 14:13:21;;;;;;;5.10;3.23;;;24.10;43.10;;;;;;5046520;28;20423;-75
2022/06/02 14:16:02;;;;;;;6.33;3.03;;;23.90;43.70;;;;;;5040969;28;20460;-74
2022/06/02 14:18:33;;;;;;;4.90;3.10;;;24.00;43.50;;;;;;5049583;28;20510;-75
2022/06/02 14:21:12;;;;;;;3.17;2.90;;;24.30;43.40;;;;;;5041375;28;20431;-74
2022/06/02 14:23:57;;;;;;;8.07;3.57;;;24.50;42.20;;;;;;5042092;28;20468;-75
2022/06/02 14:26:23;;;;;;;4.17;3.50;;;24.80;42.20;;;;;;5033814;28;21020;-75